Time;durP1;ratioP1;P1;durP2;ratioP2;P2;SDS_P1;SDS_P2;PMS_P1;PMS_P2;Temp;Humidity;BMP_temperature;BMP_pressure;BME280_temperature;BME280_humidity;BME280_pressure;Samples;Min_cycle;Max_cycle;Signal;HPM_P1;HPM_P2
2023/08/24 00:00:25;;;;;;;14.67;10.17;;;19.00;99.90;;;;;;5051103;28;21001;-67
2023/08/24 00:02:53;;;;;;;15.57;10.00;;;18.90;99.90;;;;;;5050853;28;20454;-68
2023/08/24 00:05:22;;;;;;;14.80;10.60;;;19.00;99.90;;;;;;5039389;28;20449;-68
2023/08/24 00:07:51;;;;;;;15.03;10.20;;;18.90;99.90;;;;;;5031801;28;20544;-68
2023/08/24 00:10:19;;;;;;;13.33;8.90;;;18.90;99.90;;;;;;5031769;28;20503;-68
2023/08/24 00:12:47;;;;;;;13.63;9.83;;;19.00;99.90;;;;;;5031781;28;20575;-68
2023/08/24 00:15:18;;;;;;;15.40;10.50;;;18.80;99.90;;;;;;5032268;28;20440;-68
2023/08/24 00:17:46;;;;;;;14.90;10.90;;;18.90;99.90;;;;;;5032257;28;20506;-68
2023/08/24 00:20:14;;;;;;;14.43;9.83;;;18.80;99.90;;;;;;5032481;28;20480;-68
2023/08/24 00:22:43;;;;;;;18.50;10.17;;;18.80;99.90;;;;;;5051048;28;20456;-68
2023/08/24 00:25:11;;;;;;;17.17;10.93;;;18.80;99.90;;;;;;5052353;28;20494;-68
2023/08/24 00:27:40;;;;;;;14.20;11.40;;;18.70;99.90;;;;;;5051830;28;20896;-69
2023/08/24 00:30:09;;;;;;;14.30;10.90;;;18.60;99.90;;;;;;5052186;28;20451;-68
2023/08/24 00:32:37;;;;;;;14.97;10.90;;;18.50;99.90;;;;;;5051524;28;20531;-67
2023/08/24 00:35:07;;;;;;;14.40;10.60;;;18.70;99.90;;;;;;5051816;28;20440;-67
2023/08/24 00:37:35;;;;;;;15.07;11.03;;;18.70;99.90;;;;;;5042617;28;21049;-68
2023/08/24 00:40:08;;;;;;;14.40;11.80;;;18.60;99.90;;;;;;5031915;28;20445;-68
2023/08/24 00:42:39;;;;;;;16.00;12.27;;;18.50;99.90;;;;;;5031592;28;20571;-67
2023/08/24 00:45:09;;;;;;;16.23;11.80;;;18.40;99.90;;;;;;5031583;28;20449;-67
2023/08/24 00:47:38;;;;;;;17.40;10.97;;;18.40;99.90;;;;;;5031514;28;20556;-68
2023/08/24 00:50:08;;;;;;;18.17;10.50;;;18.50;99.90;;;;;;5050311;28;20452;-67
2023/08/24 00:52:39;;;;;;;15.07;11.30;;;18.60;99.90;;;;;;5050650;28;20436;-67
2023/08/24 00:55:10;;;;;;;15.50;11.00;;;18.50;99.90;;;;;;5051477;28;21017;-66
2023/08/24 00:57:38;;;;;;;15.10;12.00;;;18.40;99.90;;;;;;5051267;28;20504;-68
2023/08/24 01:00:10;;;;;;;15.20;11.70;;;18.50;99.90;;;;;;5051401;28;20506;-66
2023/08/24 01:02:38;;;;;;;15.73;11.50;;;18.40;99.90;;;;;;5043476;28;20886;-68
2023/08/24 01:05:06;;;;;;;17.30;11.63;;;18.40;99.90;;;;;;5031764;28;20445;-67
2023/08/24 01:07:36;;;;;;;17.07;11.80;;;18.40;99.90;;;;;;5030982;28;21006;-68
2023/08/24 01:10:06;;;;;;;17.10;10.30;;;18.40;99.90;;;;;;5031524;28;20449;-67
2023/08/24 01:12:54;;;;;;;16.80;11.80;;;18.40;99.90;;;;;;5031218;28;20453;-67
2023/08/24 01:15:30;;;;;;;14.93;11.33;;;18.50;99.90;;;;;;5029797;28;20445;-67
2023/08/24 01:18:06;;;;;;;18.30;12.53;;;18.50;99.90;;;;;;5032136;28;20468;-68
2023/08/24 01:20:36;;;;;;;15.23;11.00;;;18.60;99.90;;;;;;5031693;28;20439;-68
2023/08/24 01:23:13;;;;;;;15.77;11.50;;;18.50;99.90;;;;;;5030953;28;20472;-67
2023/08/24 01:25:49;;;;;;;17.03;10.30;;;18.50;99.90;;;;;;5031249;28;20548;-67
2023/08/24 01:28:20;;;;;;;17.80;10.60;;;18.40;99.90;;;;;;5035198;28;20453;-66
2023/08/24 01:30:49;;;;;;;15.10;10.80;;;18.40;99.90;;;;;;5048359;28;20494;-67
2023/08/24 01:33:17;;;;;;;15.43;11.50;;;18.50;99.90;;;;;;5048039;28;20859;-67
2023/08/24 01:35:45;;;;;;;14.77;10.43;;;18.40;99.90;;;;;;5049708;28;20536;-67
2023/08/24 01:38:15;;;;;;;19.47;10.17;;;18.40;99.90;;;;;;5051051;28;20868;-67
2023/08/24 01:40:50;;;;;;;16.40;11.27;;;18.40;99.90;;;;;;5051351;28;20483;-66
2023/08/24 01:43:21;;;;;;;18.10;10.43;;;18.50;99.90;;;;;;5050100;28;20519;-68
2023/08/24 01:46:09;;;;;;;17.70;11.10;;;18.30;99.90;;;;;;5050300;28;20460;-68
2023/08/24 01:48:38;;;;;;;15.43;10.33;;;18.30;99.90;;;;;;5050397;28;20494;-66
2023/08/24 01:51:07;;;;;;;14.00;10.10;;;18.30;99.90;;;;;;5046385;28;20456;-69
2023/08/24 01:53:37;;;;;;;16.33;10.10;;;18.30;99.90;;;;;;5030130;28;20856;-69
2023/08/24 01:56:09;;;;;;;13.87;11.37;;;18.20;99.90;;;;;;5030309;28;20971;-67
2023/08/24 01:58:39;;;;;;;15.60;11.17;;;18.20;99.90;;;;;;5033058;28;20532;-67
2023/08/24 02:01:08;;;;;;;13.90;10.97;;;18.10;99.90;;;;;;5049721;28;20448;-66
2023/08/24 02:03:38;;;;;;;18.47;11.53;;;18.00;99.90;;;;;;5048636;28;20446;-68
2023/08/24 02:06:07;;;;;;;13.60;11.00;;;18.00;99.90;;;;;;5049168;28;21053;-67
2023/08/24 02:08:35;;;;;;;15.73;10.87;;;17.90;99.90;;;;;;5050146;28;20498;-67
2023/08/24 02:11:04;;;;;;;17.97;10.77;;;17.90;99.90;;;;;;5050063;28;20450;-68
2023/08/24 02:13:32;;;;;;;14.30;11.00;;;17.90;99.90;;;;;;5049685;28;20946;-67
2023/08/24 02:16:05;;;;;;;15.60;11.10;;;17.90;99.90;;;;;;5049867;28;21147;-67
2023/08/24 02:18:33;;;;;;;17.53;12.00;;;17.90;99.90;;;;;;5042330;28;20453;-68
2023/08/24 02:21:07;;;;;;;15.77;11.50;;;17.90;99.90;;;;;;5030334;28;20463;-68
2023/08/24 02:23:35;;;;;;;14.67;11.20;;;17.90;99.90;;;;;;5029448;28;20476;-68
2023/08/24 02:26:03;;;;;;;16.90;11.47;;;17.90;99.90;;;;;;5029775;28;21089;-68
2023/08/24 02:28:31;;;;;;;15.53;11.40;;;17.80;99.90;;;;;;5029637;28;20498;-67
2023/08/24 02:31:01;;;;;;;15.63;12.40;;;17.80;99.90;;;;;;5030239;28;20436;-68
2023/08/24 02:33:31;;;;;;;15.87;11.73;;;17.80;99.90;;;;;;5045058;28;20444;-67
2023/08/24 02:35:59;;;;;;;13.80;10.57;;;17.90;99.90;;;;;;5049360;28;20468;-68
2023/08/24 02:38:27;;;;;;;14.97;12.00;;;17.90;99.90;;;;;;5049837;28;20456;-68
2023/08/24 02:41:02;;;;;;;15.27;11.97;;;17.90;99.90;;;;;;5049709;28;20926;-68
2023/08/24 02:43:30;;;;;;;15.13;12.07;;;17.80;99.90;;;;;;5049488;28;20566;-68
2023/08/24 02:46:03;;;;;;;15.40;11.63;;;17.70;99.90;;;;;;5045312;28;20526;-67
2023/08/24 02:48:33;;;;;;;14.93;12.13;;;17.80;99.90;;;;;;5029604;28;20494;-68
2023/08/24 02:51:02;;;;;;;15.53;11.23;;;17.90;99.90;;;;;;5029441;28;20944;-68
2023/08/24 02:53:30;;;;;;;15.23;11.20;;;17.90;99.90;;;;;;5029533;28;20536;-68
2023/08/24 02:55:59;;;;;;;16.77;12.57;;;17.90;99.90;;;;;;5029719;28;20526;-67
2023/08/24 02:58:27;;;;;;;15.50;12.50;;;17.80;99.90;;;;;;5029421;28;20863;-67
2023/08/24 03:00:55;;;;;;;17.50;12.73;;;17.90;99.90;;;;;;5041631;28;20530;-68
2023/08/24 03:03:24;;;;;;;17.47;12.10;;;17.90;99.90;;;;;;5048768;28;20494;-68
2023/08/24 03:05:58;;;;;;;18.57;12.57;;;17.70;99.90;;;;;;5049461;28;20546;-67
2023/08/24 03:08:26;;;;;;;16.23;11.70;;;17.80;99.90;;;;;;5049161;28;20447;-67
2023/08/24 03:10:54;;;;;;;16.00;12.23;;;17.80;99.90;;;;;;5049604;28;20501;-65
2023/08/24 03:13:23;;;;;;;16.50;12.00;;;17.80;99.90;;;;;;5049412;28;20510;-67
2023/08/24 03:15:52;;;;;;;15.27;12.37;;;17.70;99.90;;;;;;5030815;28;20461;-67
2023/08/24 03:18:20;;;;;;;16.87;13.83;;;17.70;99.90;;;;;;5033652;28;20486;-68
2023/08/24 03:20:49;;;;;;;17.37;12.80;;;17.70;99.90;;;;;;5033404;28;20983;-68
2023/08/24 03:23:18;;;;;;;18.20;14.13;;;17.80;99.90;;;;;;5033337;28;20499;-67
2023/08/24 03:25:46;;;;;;;16.50;13.23;;;17.80;99.90;;;;;;5033331;28;20460;-67
2023/08/24 03:28:14;;;;;;;17.63;12.97;;;17.80;99.90;;;;;;5040996;28;20448;-67
2023/08/24 03:30:48;;;;;;;18.60;14.07;;;17.80;99.90;;;;;;5046799;28;20491;-67
2023/08/24 03:33:16;;;;;;;16.77;13.50;;;17.70;99.90;;;;;;5045852;28;20440;-68
2023/08/24 03:35:44;;;;;;;16.90;12.90;;;17.70;99.90;;;;;;5046972;28;20846;-67
2023/08/24 03:38:12;;;;;;;16.10;12.10;;;17.70;99.90;;;;;;5051086;28;20864;-67
2023/08/24 03:40:41;;;;;;;16.77;13.10;;;17.70;99.90;;;;;;5052985;28;20436;-67
2023/08/24 03:43:09;;;;;;;15.50;12.23;;;17.70;99.90;;;;;;5051605;28;20499;-67
2023/08/24 03:45:37;;;;;;;17.33;13.67;;;17.70;99.90;;;;;;5052892;28;20490;-67
2023/08/24 03:48:05;;;;;;;16.37;13.23;;;17.60;99.90;;;;;;5052223;28;20498;-67
2023/08/24 03:50:34;;;;;;;15.40;12.40;;;17.60;99.90;;;;;;5046257;28;20475;-64
2023/08/24 03:53:02;;;;;;;23.47;13.57;;;17.60;99.90;;;;;;5032488;28;20476;-68
2023/08/24 03:55:30;;;;;;;16.80;13.23;;;17.70;99.90;;;;;;5032439;28;20448;-68
2023/08/24 03:57:59;;;;;;;17.40;12.07;;;17.70;99.90;;;;;;5032880;28;20464;-67
2023/08/24 04:00:27;;;;;;;14.90;12.40;;;17.80;99.90;;;;;;5032309;28;20445;-67
2023/08/24 04:02:55;;;;;;;16.30;13.40;;;17.80;99.90;;;;;;5032166;28;20567;-66
2023/08/24 04:05:23;;;;;;;15.43;12.40;;;17.90;99.90;;;;;;5044869;28;20452;-63
2023/08/24 04:07:51;;;;;;;14.37;11.50;;;17.80;99.90;;;;;;5052361;28;20505;-66
2023/08/24 04:10:19;;;;;;;16.63;11.30;;;18.00;99.90;;;;;;5052123;28;20816;-65
2023/08/24 04:12:47;;;;;;;17.80;12.87;;;18.20;99.90;;;;;;5051846;28;20443;-66
2023/08/24 04:15:17;;;;;;;18.17;12.80;;;18.20;99.90;;;;;;5052287;28;20493;-64
2023/08/24 04:17:45;;;;;;;14.73;11.37;;;18.20;99.90;;;;;;5051756;28;20468;-65
2023/08/24 04:20:13;;;;;;;17.77;12.20;;;18.10;99.90;;;;;;5034299;28;20828;-65
2023/08/24 04:22:41;;;;;;;13.97;10.57;;;18.20;99.90;;;;;;5050598;28;20501;-66
2023/08/24 04:25:09;;;;;;;14.90;10.50;;;18.30;99.90;;;;;;5047357;28;20454;-65
2023/08/24 04:27:37;;;;;;;16.03;9.80;;;18.40;99.90;;;;;;5049991;28;20468;-65
2023/08/24 04:30:11;;;;;;;15.20;10.23;;;18.40;99.90;;;;;;5047969;28;20850;-65
2023/08/24 04:32:40;;;;;;;15.50;9.90;;;18.40;99.90;;;;;;5044904;28;20456;-65
2023/08/24 04:35:10;;;;;;;13.33;9.77;;;18.30;99.90;;;;;;5049945;28;20444;-64
2023/08/24 04:37:38;;;;;;;13.67;9.87;;;18.30;99.90;;;;;;5051581;28;20993;-65
2023/08/24 04:40:08;;;;;;;13.40;10.47;;;18.30;99.90;;;;;;5051535;28;20508;-65
2023/08/24 04:42:36;;;;;;;14.20;10.43;;;18.30;99.90;;;;;;5051540;28;20897;-65
2023/08/24 04:45:04;;;;;;;14.10;10.20;;;18.50;99.90;;;;;;5051734;28;20440;-67
2023/08/24 04:47:32;;;;;;;16.83;10.97;;;18.40;99.90;;;;;;5050193;28;20479;-67
2023/08/24 04:50:01;;;;;;;13.50;9.83;;;18.30;99.90;;;;;;5051903;28;20444;-67
2023/08/24 04:52:29;;;;;;;17.00;10.30;;;18.30;99.90;;;;;;5051221;28;20444;-67
2023/08/24 04:54:57;;;;;;;13.30;9.70;;;18.20;99.90;;;;;;5051595;28;20436;-68
2023/08/24 04:57:25;;;;;;;13.93;9.83;;;18.30;99.90;;;;;;5050543;28;20471;-65
2023/08/24 04:59:53;;;;;;;13.90;9.30;;;18.30;99.90;;;;;;5051751;28;20450;-67
2023/08/24 05:02:21;;;;;;;16.20;11.50;;;18.20;99.90;;;;;;5051312;28;20468;-67
2023/08/24 05:04:49;;;;;;;15.10;10.73;;;18.30;99.90;;;;;;5051395;28;20558;-66
2023/08/24 05:07:18;;;;;;;15.87;10.97;;;18.20;99.90;;;;;;5051584;28;20567;-68
2023/08/24 05:09:46;;;;;;;13.73;10.90;;;18.20;99.90;;;;;;5051279;28;20525;-68
2023/08/24 05:12:14;;;;;;;16.93;11.80;;;18.10;99.90;;;;;;5036778;28;20448;-68
2023/08/24 05:14:42;;;;;;;16.37;11.10;;;18.20;99.90;;;;;;5039883;28;20437;-66
2023/08/24 05:17:10;;;;;;;15.27;11.07;;;18.40;99.90;;;;;;5041507;28;20451;-67
2023/08/24 05:19:38;;;;;;;14.60;10.57;;;18.60;99.90;;;;;;5041581;28;20487;-67
2023/08/24 05:22:06;;;;;;;12.90;10.43;;;18.70;99.90;;;;;;5037466;28;20432;-67
2023/08/24 05:24:36;;;;;;;15.30;10.90;;;18.80;99.90;;;;;;5049831;28;20480;-67
2023/08/24 05:27:04;;;;;;;16.53;11.73;;;18.90;99.90;;;;;;5050978;28;20506;-68
2023/08/24 05:29:31;;;;;;;16.83;11.03;;;18.90;99.90;;;;;;5051287;28;20888;-68
2023/08/24 05:32:00;;;;;;;16.00;11.37;;;18.90;99.90;;;;;;5048645;28;20927;-67
2023/08/24 05:34:28;;;;;;;20.07;10.63;;;19.00;99.90;;;;;;5048185;28;20821;-67
2023/08/24 05:36:56;;;;;;;14.73;11.27;;;19.20;99.90;;;;;;5045195;28;20583;-67
2023/08/24 05:39:24;;;;;;;16.80;11.30;;;19.40;99.90;;;;;;5046668;28;20448;-67
2023/08/24 05:41:53;;;;;;;15.20;11.37;;;19.60;99.90;;;;;;5045314;28;20463;-67
2023/08/24 05:44:22;;;;;;;13.70;11.37;;;19.60;99.90;;;;;;5040052;28;20519;-67
2023/08/24 05:46:50;;;;;;;15.70;10.60;;;19.80;99.90;;;;;;5046739;28;20475;-68
2023/08/24 05:49:18;;;;;;;14.97;10.77;;;20.00;99.90;;;;;;5046524;28;21115;-68
2023/08/24 05:51:46;;;;;;;14.33;10.47;;;20.00;99.90;;;;;;5046478;28;20444;-67
2023/08/24 05:54:18;;;;;;;15.90;10.30;;;20.20;99.90;;;;;;5059111;28;20440;-67
2023/08/24 05:56:46;;;;;;;14.23;10.90;;;20.40;99.90;;;;;;5050217;28;20528;-68
2023/08/24 05:59:16;;;;;;;14.33;10.30;;;20.50;99.90;;;;;;5050214;28;20446;-68
2023/08/24 06:01:44;;;;;;;14.80;9.70;;;20.50;99.90;;;;;;5046929;28;20490;-67
2023/08/24 06:04:12;;;;;;;14.50;9.67;;;20.80;99.90;;;;;;5045238;28;20504;-67
2023/08/24 06:06:40;;;;;;;14.57;9.80;;;20.90;99.90;;;;;;5042005;28;20467;-66
2023/08/24 06:09:08;;;;;;;12.73;9.60;;;21.10;99.90;;;;;;5050064;28;20488;-69
2023/08/24 06:11:40;;;;;;;33.23;10.97;;;21.20;99.90;;;;;;5050007;28;20448;-68
2023/08/24 06:14:10;;;;;;;12.50;9.30;;;21.20;99.90;;;;;;5049907;28;20439;-68
2023/08/24 06:16:39;;;;;;;16.97;9.90;;;21.30;99.90;;;;;;5050062;28;20555;-71
2023/08/24 06:19:07;;;;;;;14.73;9.57;;;21.40;99.90;;;;;;5048640;28;20876;-68
2023/08/24 06:21:35;;;;;;;15.40;10.27;;;21.60;99.90;;;;;;5049888;28;20468;-70
2023/08/24 06:24:03;;;;;;;15.40;10.23;;;21.80;99.90;;;;;;5049726;28;20975;-69
2023/08/24 06:26:31;;;;;;;15.40;9.17;;;22.00;99.90;;;;;;5043765;28;21150;-68
2023/08/24 06:28:59;;;;;;;13.30;9.60;;;22.20;99.90;;;;;;5049820;28;20852;-68
2023/08/24 06:31:27;;;;;;;13.37;9.37;;;22.30;99.90;;;;;;5050108;28;20436;-68
2023/08/24 06:33:57;;;;;;;12.93;8.83;;;22.10;99.90;;;;;;5048724;28;20817;-68
2023/08/24 06:36:25;;;;;;;13.63;10.00;;;22.30;99.90;;;;;;5049946;28;20533;-68
2023/08/24 06:38:53;;;;;;;15.23;10.03;;;22.30;99.90;;;;;;5049698;28;20493;-69
2023/08/24 06:41:21;;;;;;;15.70;8.93;;;22.40;99.90;;;;;;5050045;28;20505;-68
2023/08/24 06:43:49;;;;;;;15.20;9.67;;;22.50;99.90;;;;;;5049036;28;20440;-69
2023/08/24 06:46:17;;;;;;;14.80;10.00;;;22.60;99.90;;;;;;5044275;28;20552;-68
2023/08/24 06:48:45;;;;;;;16.97;9.20;;;22.50;99.90;;;;;;5029636;28;20448;-69
2023/08/24 06:51:14;;;;;;;13.70;10.00;;;22.30;99.90;;;;;;5029364;28;20479;-69
2023/08/24 06:53:43;;;;;;;17.97;9.20;;;22.20;99.90;;;;;;5029543;28;20513;-68
2023/08/24 06:56:12;;;;;;;13.47;8.90;;;22.10;99.90;;;;;;5029581;28;20468;-68
2023/08/24 06:58:40;;;;;;;17.30;8.13;;;22.00;99.90;;;;;;5029664;28;20437;-68
2023/08/24 07:01:07;;;;;;;17.87;9.80;;;22.00;99.90;;;;;;5044402;28;21025;-69
2023/08/24 07:03:35;;;;;;;13.87;8.70;;;22.00;99.90;;;;;;5053351;28;20463;-68
2023/08/24 07:06:06;;;;;;;18.37;8.50;;;22.00;99.90;;;;;;5053009;28;20566;-69
2023/08/24 07:08:35;;;;;;;14.43;8.83;;;22.20;99.90;;;;;;5054090;28;20456;-69
2023/08/24 07:11:05;;;;;;;14.40;8.40;;;22.40;99.90;;;;;;5053091;28;20440;-69
2023/08/24 07:13:34;;;;;;;14.33;8.63;;;22.60;99.90;;;;;;5051411;28;20452;-70
2023/08/24 07:16:03;;;;;;;13.93;7.27;;;22.80;99.90;;;;;;5032997;28;20460;-70
2023/08/24 07:18:31;;;;;;;12.50;7.70;;;23.00;99.90;;;;;;5033361;28;20449;-70
2023/08/24 07:20:59;;;;;;;11.33;8.10;;;23.30;99.90;;;;;;5032793;28;20445;-69
2023/08/24 07:23:28;;;;;;;14.03;8.07;;;23.50;99.90;;;;;;5032636;28;20449;-69
2023/08/24 07:25:57;;;;;;;11.50;7.40;;;23.80;99.90;;;;;;5032532;28;20481;-68
2023/08/24 07:28:25;;;;;;;14.00;7.63;;;23.90;99.90;;;;;;5030436;28;20800;-69
2023/08/24 07:30:55;;;;;;;15.80;6.80;;;24.00;99.90;;;;;;5030140;28;20433;-69
2023/08/24 07:33:24;;;;;;;15.33;7.63;;;24.00;99.90;;;;;;5043216;28;20848;-69
2023/08/24 07:35:52;;;;;;;14.90;7.87;;;23.90;99.90;;;;;;5049187;28;20456;-69
2023/08/24 07:38:20;;;;;;;13.30;7.90;;;24.00;99.90;;;;;;5050090;28;20445;-69
2023/08/24 07:40:49;;;;;;;11.73;7.20;;;24.00;99.90;;;;;;5049670;28;20450;-70
2023/08/24 07:43:18;;;;;;;13.80;7.70;;;24.00;99.90;;;;;;5052921;28;20512;-70
2023/08/24 07:45:46;;;;;;;15.23;7.27;;;23.80;99.90;;;;;;5066786;28;20532;-70
2023/08/24 07:48:15;;;;;;;13.70;8.00;;;23.40;99.90;;;;;;5061540;28;20523;-69
2023/08/24 07:50:43;;;;;;;13.30;8.50;;;23.20;99.90;;;;;;5049841;28;20452;-69
2023/08/24 07:53:11;;;;;;;15.03;8.90;;;23.00;99.90;;;;;;5048501;28;20555;-69
2023/08/24 07:55:39;;;;;;;12.07;6.83;;;22.90;99.90;;;;;;5049014;28;20509;-69
2023/08/24 07:58:07;;;;;;;18.13;9.00;;;22.90;99.90;;;;;;5048859;28;20448;-68
2023/08/24 08:00:36;;;;;;;15.60;7.87;;;23.00;99.90;;;;;;5048736;28;20570;-68
2023/08/24 08:03:05;;;;;;;14.10;8.47;;;23.00;99.90;;;;;;5051185;28;20452;-69
2023/08/24 08:05:33;;;;;;;14.03;7.53;;;23.10;99.90;;;;;;5037726;28;20484;-69
2023/08/24 08:08:01;;;;;;;12.90;8.20;;;23.20;99.90;;;;;;5031835;28;20444;-68
2023/08/24 08:10:29;;;;;;;13.27;7.47;;;23.30;99.90;;;;;;5031555;28;20514;-69
2023/08/24 08:12:57;;;;;;;12.03;7.33;;;23.30;99.90;;;;;;5031990;28;20436;-69
2023/08/24 08:15:25;;;;;;;15.50;7.50;;;23.40;99.90;;;;;;5030797;28;20495;-69
2023/08/24 08:17:55;;;;;;;15.30;8.17;;;23.50;99.90;;;;;;5032289;28;20437;-69
2023/08/24 08:20:23;;;;;;;11.63;7.30;;;23.60;99.90;;;;;;5034291;28;20468;-69
2023/08/24 08:22:50;;;;;;;13.50;6.60;;;23.80;99.90;;;;;;5051601;28;20501;-69
2023/08/24 08:25:19;;;;;;;15.93;7.77;;;24.00;99.90;;;;;;5051343;28;20833;-68
2023/08/24 08:27:50;;;;;;;13.57;7.63;;;24.10;99.90;;;;;;5051679;28;20439;-69
2023/08/24 08:30:20;;;;;;;11.30;7.00;;;24.20;99.90;;;;;;5051382;28;20447;-69
2023/08/24 08:32:48;;;;;;;12.47;7.47;;;24.40;99.90;;;;;;5047449;28;20449;-70
2023/08/24 08:35:18;;;;;;;11.37;7.07;;;24.60;99.90;;;;;;5043855;28;20436;-68
2023/08/24 08:37:49;;;;;;;12.80;7.77;;;24.80;99.90;;;;;;5042503;28;20472;-69
2023/08/24 08:40:18;;;;;;;14.10;7.20;;;24.80;99.90;;;;;;5050543;28;20487;-71
2023/08/24 08:42:47;;;;;;;11.70;6.97;;;24.80;99.90;;;;;;5053355;28;20456;-70
2023/08/24 08:45:15;;;;;;;14.03;6.50;;;24.80;99.90;;;;;;5044961;28;20960;-71
2023/08/24 08:47:43;;;;;;;12.23;8.50;;;24.90;99.90;;;;;;5047770;28;20530;-70
2023/08/24 08:50:12;;;;;;;12.47;7.60;;;25.00;99.90;;;;;;5042896;28;20864;-69
2023/08/24 08:52:41;;;;;;;11.60;7.37;;;25.30;99.90;;;;;;5042423;28;21025;-69
2023/08/24 08:55:11;;;;;;;12.03;6.53;;;25.30;99.90;;;;;;5041490;28;20814;-70
2023/08/24 08:57:41;;;;;;;12.30;6.60;;;25.40;99.90;;;;;;5042216;28;20558;-71
2023/08/24 09:00:12;;;;;;;11.40;6.77;;;25.70;99.90;;;;;;5045022;28;20428;-69
2023/08/24 09:02:44;;;;;;;9.97;6.30;;;25.80;99.90;;;;;;5045084;28;20445;-70
2023/08/24 09:05:13;;;;;;;10.67;6.00;;;26.00;99.90;;;;;;5040015;28;20465;-70
2023/08/24 09:07:43;;;;;;;11.23;6.80;;;26.10;99.90;;;;;;5040855;28;20465;-70
2023/08/24 09:10:11;;;;;;;15.57;6.23;;;26.30;99.90;;;;;;5039925;28;20443;-69
2023/08/24 09:12:39;;;;;;;12.03;6.70;;;26.40;99.90;;;;;;5038954;28;20530;-70
2023/08/24 09:15:08;;;;;;;13.83;6.80;;;26.50;99.90;;;;;;5042264;28;20471;-69
2023/08/24 09:17:36;;;;;;;10.33;5.83;;;26.80;99.90;;;;;;5041796;28;20970;-70
2023/08/24 09:20:08;;;;;;;12.10;6.30;;;26.80;99.90;;;;;;5041095;28;20482;-70
2023/08/24 09:22:37;;;;;;;14.10;7.23;;;27.00;99.90;;;;;;5040086;28;20472;-70
2023/08/24 09:25:08;;;;;;;11.07;6.43;;;27.10;99.90;;;;;;5040771;28;20482;-71
2023/08/24 09:27:36;;;;;;;12.80;6.50;;;27.00;99.90;;;;;;5041824;28;20491;-70
2023/08/24 09:30:05;;;;;;;11.73;6.40;;;27.00;99.90;;;;;;5040969;28;20437;-68
2023/08/24 09:32:33;;;;;;;13.00;6.80;;;27.20;99.90;;;;;;5038316;28;20437;-68
2023/08/24 09:35:05;;;;;;;11.70;6.50;;;27.70;99.90;;;;;;5033780;28;20477;-69
2023/08/24 09:37:35;;;;;;;15.00;6.63;;;28.00;99.90;;;;;;5030952;28;20553;-68
2023/08/24 09:40:07;;;;;;;15.67;6.57;;;28.30;99.90;;;;;;5039017;28;20476;-68
2023/08/24 09:42:41;;;;;;;10.80;6.10;;;28.60;99.90;;;;;;5039116;28;21014;-68
2023/08/24 09:45:13;;;;;;;12.17;6.50;;;28.80;99.90;;;;;;5040414;28;20786;-68
2023/08/24 09:47:45;;;;;;;13.33;6.33;;;29.20;99.90;;;;;;5040952;28;20507;-68
2023/08/24 09:50:14;;;;;;;12.60;5.67;;;29.70;97.60;;;;;;5040675;28;20445;-69
2023/08/24 09:52:43;;;;;;;13.20;5.57;;;29.90;98.00;;;;;;5040171;28;20519;-69
2023/08/24 09:55:12;;;;;;;11.33;5.73;;;30.10;95.50;;;;;;5040748;28;20877;-68
2023/08/24 09:57:43;;;;;;;9.57;5.40;;;30.50;95.10;;;;;;5047699;28;20452;-69
2023/08/24 10:00:14;;;;;;;10.30;5.20;;;30.60;95.80;;;;;;5044331;28;20491;-69
2023/08/24 10:02:50;;;;;;;11.57;5.53;;;31.00;95.70;;;;;;5046399;28;20436;-68
2023/08/24 10:05:23;;;;;;;13.13;6.10;;;31.40;92.30;;;;;;5042479;28;20479;-69
2023/08/24 10:08:08;;;;;;;10.50;5.67;;;31.70;90.80;;;;;;5030497;28;20424;-69
2023/08/24 10:10:37;;;;;;;11.43;5.57;;;32.10;90.40;;;;;;5030430;28;20445;-69
2023/08/24 10:13:12;;;;;;;11.30;5.53;;;32.40;88.60;;;;;;5030152;28;20436;-70
2023/08/24 10:15:46;;;;;;;12.13;5.87;;;32.80;86.60;;;;;;5030731;28;20463;-69
2023/08/24 10:18:15;;;;;;;10.53;5.73;;;33.00;81.90;;;;;;5030982;28;20446;-69
2023/08/24 10:20:45;;;;;;;10.30;5.47;;;33.30;80.10;;;;;;5033817;28;20468;-70
2023/08/24 10:23:15;;;;;;;10.00;5.40;;;33.40;80.20;;;;;;5050037;28;20443;-69
2023/08/24 10:25:44;;;;;;;11.57;6.50;;;33.60;76.00;;;;;;5050177;28;20467;-69
2023/08/24 10:28:15;;;;;;;10.97;6.90;;;33.60;75.90;;;;;;5050065;28;20444;-69
2023/08/24 10:30:44;;;;;;;9.37;6.10;;;33.60;78.30;;;;;;5050008;28;20505;-69
2023/08/24 10:33:14;;;;;;;10.00;5.90;;;33.90;79.10;;;;;;5049784;28;20516;-69
2023/08/24 10:35:43;;;;;;;11.33;6.30;;;34.10;75.40;;;;;;5049997;28;20547;-69
2023/08/24 10:38:24;;;;;;;11.27;6.40;;;34.40;79.00;;;;;;5048215;28;20501;-68
2023/08/24 10:40:53;;;;;;;11.50;6.50;;;34.50;72.10;;;;;;5050177;28;20467;-69
2023/08/24 10:43:23;;;;;;;9.77;6.07;;;34.70;70.30;;;;;;5049482;28;20483;-67
2023/08/24 10:45:59;;;;;;;10.10;6.70;;;34.90;72.10;;;;;;5049711;28;20982;-69
2023/08/24 10:48:29;;;;;;;10.80;6.97;;;35.10;71.30;;;;;;5050246;28;20447;-69
2023/08/24 10:51:22;;;;;;;10.10;5.43;;;35.20;66.90;;;;;;5049958;28;20447;-69
2023/08/24 10:53:54;;;;;;;12.80;6.17;;;35.60;67.10;;;;;;5042845;28;20445;-69
2023/08/24 10:56:30;;;;;;;9.70;5.70;;;36.00;66.90;;;;;;5037938;28;20960;-70
2023/08/24 10:59:13;;;;;;;9.53;6.53;;;36.30;65.60;;;;;;5048955;28;20440;-66
2023/08/24 11:01:42;;;;;;;10.97;5.90;;;36.50;60.90;;;;;;5049374;28;20438;-69
2023/08/24 11:04:12;;;;;;;10.20;6.27;;;36.50;64.70;;;;;;5043551;28;21065;-68
2023/08/24 11:06:57;;;;;;;13.23;6.43;;;36.50;60.10;;;;;;5048528;28;20479;-69
2023/08/24 11:09:25;;;;;;;9.97;5.80;;;36.40;65.10;;;;;;5049529;28;20452;-69
2023/08/24 11:11:58;;;;;;;10.10;6.00;;;36.20;63.10;;;;;;5049153;28;20459;-69
2023/08/24 11:14:29;;;;;;;10.23;6.40;;;36.20;62.00;;;;;;5049155;28;20451;-69
2023/08/24 11:16:59;;;;;;;10.70;6.33;;;36.40;62.70;;;;;;5049670;28;20688;-69
2023/08/24 11:19:30;;;;;;;9.20;6.37;;;36.50;62.00;;;;;;5049913;28;20490;-69
2023/08/24 11:21:59;;;;;;;10.90;6.73;;;36.60;59.70;;;;;;5050207;28;20494;-69
2023/08/24 11:24:28;;;;;;;12.47;6.63;;;36.60;61.50;;;;;;5049129;28;20523;-69
2023/08/24 11:26:56;;;;;;;10.63;6.93;;;36.90;58.80;;;;;;5047916;28;20849;-69
2023/08/24 11:29:27;;;;;;;11.00;6.47;;;37.40;60.10;;;;;;5049163;28;20444;-69
2023/08/24 11:31:55;;;;;;;9.57;6.17;;;37.60;59.60;;;;;;5049468;28;20436;-69
2023/08/24 11:34:23;;;;;;;12.70;6.00;;;37.90;57.80;;;;;;5049048;28;21004;-69
2023/08/24 11:36:51;;;;;;;9.43;6.00;;;38.30;57.40;;;;;;5050323;28;20497;-67
2023/08/24 11:39:22;;;;;;;10.60;6.50;;;38.60;56.10;;;;;;5052925;28;20439;-69
2023/08/24 11:42:01;;;;;;;10.20;6.23;;;38.70;54.60;;;;;;5050827;28;20447;-69
2023/08/24 11:44:45;;;;;;;12.10;6.43;;;38.70;55.90;;;;;;5041869;28;20443;-69
2023/08/24 11:47:15;;;;;;;10.60;6.30;;;39.00;53.60;;;;;;5052660;28;20487;-68
2023/08/24 11:49:43;;;;;;;9.63;6.70;;;39.20;52.20;;;;;;5047274;28;20510;-69
2023/08/24 11:52:11;;;;;;;9.83;6.40;;;39.30;53.90;;;;;;5052884;28;20493;-68
2023/08/24 11:54:39;;;;;;;8.63;5.60;;;39.40;51.80;;;;;;5052803;28;20871;-69
2023/08/24 11:57:09;;;;;;;11.90;6.33;;;39.70;54.20;;;;;;5053455;28;20505;-69
2023/08/24 11:59:40;;;;;;;9.70;6.43;;;39.80;52.70;;;;;;5054477;28;20467;-70
2023/08/24 12:02:10;;;;;;;10.30;6.20;;;40.00;51.80;;;;;;5049350;28;20448;-68
2023/08/24 12:04:40;;;;;;;8.87;6.20;;;40.00;50.20;;;;;;5035198;28;20435;-68
2023/08/24 12:07:10;;;;;;;13.00;6.33;;;40.20;51.40;;;;;;5036034;28;21083;-68
2023/08/24 12:09:39;;;;;;;9.13;5.80;;;40.20;49.60;;;;;;5034747;28;20460;-68
2023/08/24 12:12:13;;;;;;;11.97;6.33;;;40.60;51.20;;;;;;5032299;28;20448;-68
2023/08/24 12:14:43;;;;;;;13.77;6.93;;;41.20;48.80;;;;;;5034076;28;20447;-68
2023/08/24 12:17:11;;;;;;;12.03;6.57;;;41.30;48.00;;;;;;5052404;28;20244;-68
2023/08/24 12:19:43;;;;;;;10.53;6.40;;;41.10;48.10;;;;;;5052671;28;20516;-68
2023/08/24 12:22:14;;;;;;;14.30;6.37;;;41.80;47.10;;;;;;5052387;28;20449;-68
2023/08/24 12:24:45;;;;;;;13.67;6.13;;;42.30;47.00;;;;;;5052475;28;20748;-68
2023/08/24 12:27:19;;;;;;;10.20;6.60;;;42.30;45.10;;;;;;5052108;28;20235;-67
2023/08/24 12:29:49;;;;;;;10.60;6.37;;;41.00;47.10;;;;;;5051853;28;20435;-69
2023/08/24 12:32:19;;;;;;;10.30;6.50;;;40.90;48.70;;;;;;5041196;28;20536;-68
2023/08/24 12:34:47;;;;;;;9.03;6.13;;;41.10;48.80;;;;;;5031882;28;20444;-68
2023/08/24 12:37:16;;;;;;;10.27;5.73;;;41.10;49.70;;;;;;5032518;28;20515;-67
2023/08/24 12:39:44;;;;;;;9.80;6.43;;;40.80;47.70;;;;;;5032075;28;20870;-68
2023/08/24 12:42:12;;;;;;;11.73;6.70;;;40.70;47.20;;;;;;5032342;28;20476;-67
2023/08/24 12:44:40;;;;;;;12.27;7.67;;;40.80;49.50;;;;;;5031693;28;20943;-68